VOE105 LEBB-LIPX
Flight info
| Callsign | VOE105 |
|---|---|
| Flight time | N/A |
| Altitude | 38000 |
| Route | PPN M601 BCN M985 LUMAS DCT MERLU DCT OLETI DCT OSBUL |
| Aircraft | A319/M-SDE3FGHIRWY/LB1 |
Departure
| Time | N/A |
|---|---|
| Airport | Bilbao Airport (LEBB) |
Arrival
| Time | 2026-04-21 15:37 |
|---|---|
| Airport | Verona Villafranca Valerio Catullo Airport (LIPX) |
| Time | Latitude | Longitude | Altitude | Speed | Heading |
|---|---|---|---|---|---|
| 2026-04-21 14:03 | 42.71248 | -1.61891 | 27639 ft | 442 kts | 117° |
| 2026-04-21 14:04 | 42.69905 | -1.58092 | 27535 ft | 444 kts | 117° |
| 2026-04-21 14:04 | 42.68566 | -1.54340 | 26735 ft | 446 kts | 117° |
| 2026-04-21 14:04 | 42.67213 | -1.50565 | 26015 ft | 446 kts | 117° |
| 2026-04-21 14:04 | 42.65857 | -1.46793 | 25251 ft | 445 kts | 117° |
| 2026-04-21 14:05 | 42.64487 | -1.42992 | 24911 ft | 445 kts | 117° |
| 2026-04-21 14:05 | 42.63137 | -1.39262 | 25326 ft | 446 kts | 117° |
| 2026-04-21 14:05 | 42.61755 | -1.35451 | 25752 ft | 448 kts | 117° |
| 2026-04-21 14:05 | 42.60373 | -1.31646 | 26211 ft | 452 kts | 118° |
| 2026-04-21 14:06 | 42.58989 | -1.27835 | 26798 ft | 455 kts | 118° |
| 2026-04-21 14:06 | 42.57590 | -1.23987 | 27597 ft | 457 kts | 117° |
| 2026-04-21 14:06 | 42.56176 | -1.20096 | 28507 ft | 460 kts | 117° |
| 2026-04-21 14:06 | 42.54769 | -1.16228 | 29512 ft | 462 kts | 117° |
| 2026-04-21 14:07 | 42.53357 | -1.12352 | 30303 ft | 463 kts | 117° |
| 2026-04-21 14:07 | 42.51931 | -1.08448 | 30687 ft | 465 kts | 118° |
| 2026-04-21 14:07 | 42.50486 | -1.04497 | 31122 ft | 465 kts | 118° |
| 2026-04-21 14:07 | 42.49059 | -1.00602 | 31610 ft | 463 kts | 118° |
| 2026-04-21 14:08 | 42.47627 | -0.96701 | 32109 ft | 461 kts | 118° |
| 2026-04-21 14:08 | 42.46210 | -0.92846 | 32607 ft | 460 kts | 118° |
| 2026-04-21 14:08 | 42.44782 | -0.88967 | 33089 ft | 460 kts | 118° |
| 2026-04-21 14:08 | 42.43366 | -0.85126 | 33557 ft | 459 kts | 118° |
| 2026-04-21 14:09 | 42.41954 | -0.81301 | 34024 ft | 459 kts | 118° |
| 2026-04-21 14:09 | 42.40521 | -0.77424 | 34488 ft | 458 kts | 118° |
| 2026-04-21 14:09 | 42.39108 | -0.73608 | 34942 ft | 457 kts | 118° |
| 2026-04-21 14:09 | 42.37694 | -0.69793 | 35388 ft | 456 kts | 118° |
| 2026-04-21 14:10 | 42.36285 | -0.65997 | 35800 ft | 455 kts | 118° |
| 2026-04-21 14:10 | 42.34858 | -0.62159 | 36165 ft | 454 kts | 118° |
| 2026-04-21 14:10 | 42.33449 | -0.58375 | 36483 ft | 455 kts | 118° |
| 2026-04-21 14:10 | 42.32024 | -0.54530 | 36767 ft | 456 kts | 118° |
| 2026-04-21 14:11 | 42.30622 | -0.50694 | 37013 ft | 458 kts | 118° |
| 2026-04-21 14:11 | 42.29224 | -0.46854 | 37223 ft | 459 kts | 118° |
| 2026-04-21 14:11 | 42.27828 | -0.43024 | 37431 ft | 460 kts | 118° |
| 2026-04-21 14:11 | 42.26409 | -0.39143 | 37628 ft | 461 kts | 118° |
| 2026-04-21 14:12 | 42.24994 | -0.35281 | 37806 ft | 462 kts | 118° |
| 2026-04-21 14:12 | 42.23576 | -0.31415 | 37938 ft | 463 kts | 119° |
| 2026-04-21 14:12 | 42.22132 | -0.27490 | 37974 ft | 464 kts | 119° |
| 2026-04-21 14:13 | 42.19269 | -0.19724 | 37997 ft | 464 kts | 119° |
| 2026-04-21 14:13 | 42.17133 | -0.11574 | 37976 ft | 469 kts | 102° |
| 2026-04-21 14:14 | 42.16066 | -0.02894 | 37967 ft | 470 kts | 100° |
| 2026-04-21 14:14 | 42.15044 | 0.05726 | 37950 ft | 470 kts | 101° |
| 2026-04-21 14:15 | 42.13969 | 0.14429 | 37924 ft | 470 kts | 101° |
| 2026-04-21 14:15 | 42.12880 | 0.23042 | 37896 ft | 471 kts | 101° |
| 2026-04-21 14:16 | 42.11772 | 0.31706 | 37884 ft | 472 kts | 101° |
| 2026-04-21 14:16 | 42.10650 | 0.40436 | 37903 ft | 473 kts | 101° |
| 2026-04-21 14:17 | 42.09530 | 0.49096 | 37930 ft | 473 kts | 101° |
| 2026-04-21 14:17 | 42.08401 | 0.57767 | 37947 ft | 473 kts | 101° |
| 2026-04-21 14:18 | 42.07256 | 0.66501 | 37944 ft | 473 kts | 101° |
| 2026-04-21 14:18 | 42.06111 | 0.75181 | 37936 ft | 473 kts | 101° |
| 2026-04-21 14:19 | 42.04955 | 0.83889 | 37936 ft | 473 kts | 101° |
| 2026-04-21 14:19 | 42.03798 | 0.92555 | 37945 ft | 474 kts | 101° |
| 2026-04-21 14:20 | 42.02634 | 1.01219 | 37961 ft | 475 kts | 101° |
| 2026-04-21 14:20 | 42.01454 | 1.09958 | 37965 ft | 475 kts | 101° |
| 2026-04-21 14:21 | 42.00272 | 1.18649 | 37952 ft | 476 kts | 101° |
| 2026-04-21 14:21 | 41.99079 | 1.27388 | 37915 ft | 476 kts | 101° |
| 2026-04-21 14:22 | 41.97884 | 1.36097 | 37880 ft | 476 kts | 101° |
| 2026-04-21 14:22 | 41.96679 | 1.44815 | 37865 ft | 476 kts | 101° |
| 2026-04-21 14:23 | 41.95467 | 1.53529 | 37870 ft | 476 kts | 101° |
| 2026-04-21 14:23 | 41.94241 | 1.62285 | 37876 ft | 477 kts | 101° |
| 2026-04-21 14:24 | 41.93018 | 1.70975 | 37874 ft | 477 kts | 101° |
| 2026-04-21 14:24 | 41.91780 | 1.79719 | 37871 ft | 477 kts | 101° |
| 2026-04-21 14:25 | 41.90543 | 1.88406 | 37872 ft | 477 kts | 101° |
| 2026-04-21 14:25 | 41.89292 | 1.97143 | 37846 ft | 477 kts | 101° |
| 2026-04-21 14:26 | 41.88038 | 2.05858 | 37794 ft | 477 kts | 101° |
| 2026-04-21 14:26 | 41.86780 | 2.14543 | 37833 ft | 477 kts | 101° |
| 2026-04-21 14:27 | 41.85518 | 2.23216 | 37900 ft | 477 kts | 101° |
| 2026-04-21 14:27 | 41.84237 | 2.31964 | 37934 ft | 477 kts | 101° |
| 2026-04-21 14:28 | 41.82959 | 2.40639 | 37941 ft | 477 kts | 101° |
| 2026-04-21 14:28 | 41.81669 | 2.49339 | 37924 ft | 477 kts | 101° |
| 2026-04-21 14:29 | 41.80379 | 2.57987 | 37931 ft | 477 kts | 101° |
| 2026-04-21 14:29 | 41.79074 | 2.66701 | 37923 ft | 477 kts | 102° |
| 2026-04-21 14:30 | 41.77766 | 2.75392 | 37911 ft | 477 kts | 102° |
| 2026-04-21 14:30 | 41.76457 | 2.84038 | 37903 ft | 477 kts | 102° |
| 2026-04-21 14:31 | 41.75136 | 2.92718 | 37897 ft | 478 kts | 102° |
| 2026-04-21 14:31 | 41.73804 | 3.01424 | 37892 ft | 478 kts | 102° |
| 2026-04-21 14:32 | 41.72470 | 3.10103 | 37890 ft | 479 kts | 102° |
| 2026-04-21 14:32 | 41.71121 | 3.18820 | 37890 ft | 479 kts | 102° |
| 2026-04-21 14:33 | 41.69779 | 3.27455 | 37890 ft | 479 kts | 102° |
| 2026-04-21 14:33 | 41.68421 | 3.36164 | 37892 ft | 479 kts | 102° |
| 2026-04-21 14:34 | 41.67053 | 3.44885 | 37895 ft | 480 kts | 102° |
| 2026-04-21 14:34 | 41.65686 | 3.53550 | 37896 ft | 480 kts | 101° |
| 2026-04-21 14:35 | 41.64301 | 3.62282 | 37897 ft | 481 kts | 101° |
| 2026-04-21 14:35 | 41.62908 | 3.71009 | 37897 ft | 481 kts | 102° |
| 2026-04-21 14:36 | 41.61760 | 3.79797 | 37898 ft | 481 kts | 95° |
| 2026-04-21 14:36 | 41.61553 | 3.88658 | 37898 ft | 481 kts | 86° |
| 2026-04-21 14:37 | 41.62334 | 3.97500 | 37899 ft | 479 kts | 77° |
| 2026-04-21 14:37 | 41.63728 | 4.06134 | 37899 ft | 479 kts | 75° |
| 2026-04-21 14:38 | 41.65151 | 4.14772 | 37899 ft | 479 kts | 75° |
| 2026-04-21 14:38 | 41.66548 | 4.23466 | 37898 ft | 479 kts | 75° |
| 2026-04-21 14:39 | 41.67928 | 4.32158 | 37896 ft | 479 kts | 75° |
| 2026-04-21 14:39 | 41.69300 | 4.40856 | 37895 ft | 479 kts | 75° |
| 2026-04-21 14:40 | 41.70658 | 4.49519 | 37895 ft | 479 kts | 75° |
| 2026-04-21 14:40 | 41.72094 | 4.58214 | 37892 ft | 478 kts | 72° |
| 2026-04-21 14:41 | 41.74149 | 4.66641 | 37885 ft | 475 kts | 65° |
| 2026-04-21 14:41 | 41.76919 | 4.74577 | 37883 ft | 472 kts | 58° |
| 2026-04-21 14:42 | 41.80248 | 4.82110 | 37883 ft | 471 kts | 55° |
| 2026-04-21 14:42 | 41.83653 | 4.89586 | 37887 ft | 471 kts | 55° |
| 2026-04-21 14:43 | 41.87041 | 4.97078 | 37892 ft | 471 kts | 55° |
| 2026-04-21 14:43 | 41.90425 | 5.04607 | 37892 ft | 472 kts | 55° |
| 2026-04-21 14:44 | 41.93799 | 5.12141 | 37888 ft | 472 kts | 55° |
| 2026-04-21 14:44 | 41.97170 | 5.19689 | 37885 ft | 472 kts | 55° |
| 2026-04-21 14:45 | 42.00520 | 5.27209 | 37883 ft | 472 kts | 55° |
| 2026-04-21 14:45 | 42.03876 | 5.34767 | 37885 ft | 472 kts | 54° |
| 2026-04-21 14:46 | 42.07240 | 5.42357 | 37888 ft | 472 kts | 54° |
| 2026-04-21 14:46 | 42.10580 | 5.49916 | 37887 ft | 473 kts | 54° |
| 2026-04-21 14:47 | 42.13938 | 5.57533 | 37889 ft | 474 kts | 54° |
| 2026-04-21 14:47 | 42.17292 | 5.65159 | 37894 ft | 474 kts | 55° |
| 2026-04-21 14:48 | 42.20647 | 5.72803 | 37894 ft | 475 kts | 55° |
| 2026-04-21 14:48 | 42.23993 | 5.80451 | 37894 ft | 475 kts | 55° |
| 2026-04-21 14:49 | 42.27323 | 5.88090 | 37894 ft | 475 kts | 55° |
| 2026-04-21 14:49 | 42.30668 | 5.95779 | 37894 ft | 475 kts | 55° |
| 2026-04-21 14:50 | 42.33430 | 6.02142 | 37894 ft | 475 kts | 55° |
| 2026-04-21 14:50 | 42.37328 | 6.11144 | 37891 ft | 475 kts | 55° |
| 2026-04-21 14:51 | 42.40640 | 6.18811 | 37891 ft | 475 kts | 55° |
| 2026-04-21 14:51 | 42.43961 | 6.26521 | 37891 ft | 475 kts | 55° |
| 2026-04-21 14:52 | 42.47261 | 6.34204 | 37890 ft | 474 kts | 55° |
| 2026-04-21 14:52 | 42.50554 | 6.41899 | 37888 ft | 474 kts | 55° |
| 2026-04-21 14:53 | 42.53865 | 6.49652 | 37887 ft | 474 kts | 55° |
| 2026-04-21 14:53 | 42.57155 | 6.57372 | 37888 ft | 474 kts | 55° |
| 2026-04-21 14:54 | 42.60423 | 6.65062 | 37892 ft | 474 kts | 56° |
| 2026-04-21 14:54 | 42.63701 | 6.72789 | 37893 ft | 475 kts | 56° |
| 2026-04-21 14:55 | 42.66984 | 6.80550 | 37893 ft | 475 kts | 56° |
| 2026-04-21 14:55 | 42.70261 | 6.88320 | 37892 ft | 475 kts | 56° |
| 2026-04-21 14:56 | 42.73528 | 6.96084 | 37893 ft | 475 kts | 56° |
| 2026-04-21 14:56 | 42.76796 | 7.03874 | 37889 ft | 475 kts | 56° |
| 2026-04-21 14:57 | 42.80070 | 7.11699 | 37884 ft | 475 kts | 56° |
| 2026-04-21 14:57 | 42.83311 | 7.19466 | 37886 ft | 475 kts | 56° |
| 2026-04-21 14:58 | 42.86556 | 7.27262 | 37891 ft | 475 kts | 56° |
| 2026-04-21 14:58 | 42.89808 | 7.35098 | 37896 ft | 475 kts | 56° |
| 2026-04-21 14:59 | 42.93039 | 7.42905 | 37899 ft | 475 kts | 56° |
| 2026-04-21 14:59 | 42.96271 | 7.50733 | 37900 ft | 475 kts | 56° |
| 2026-04-21 15:00 | 42.99498 | 7.58571 | 37901 ft | 475 kts | 55° |
| 2026-04-21 15:00 | 43.02744 | 7.66476 | 37899 ft | 476 kts | 56° |
| 2026-04-21 15:01 | 43.05956 | 7.74296 | 37900 ft | 475 kts | 55° |
| 2026-04-21 15:01 | 43.09580 | 7.81809 | 37901 ft | 470 kts | 47° |
| 2026-04-21 15:02 | 43.13677 | 7.88695 | 37902 ft | 468 kts | 44° |
| 2026-04-21 15:02 | 43.17866 | 7.95498 | 37901 ft | 468 kts | 44° |
| 2026-04-21 15:03 | 43.22036 | 8.02311 | 37897 ft | 467 kts | 44° |
| 2026-04-21 15:03 | 43.26173 | 8.09109 | 37887 ft | 468 kts | 44° |
| 2026-04-21 15:04 | 43.30346 | 8.15986 | 37884 ft | 468 kts | 44° |
| 2026-04-21 15:04 | 43.34486 | 8.22823 | 37889 ft | 468 kts | 44° |
| 2026-04-21 15:05 | 43.38632 | 8.29692 | 37891 ft | 468 kts | 44° |
| 2026-04-21 15:05 | 43.44826 | 8.39986 | 37897 ft | 468 kts | 44° |
| 2026-04-21 15:06 | 43.48945 | 8.46851 | 37901 ft | 468 kts | 44° |
| 2026-04-21 15:06 | 43.53074 | 8.53749 | 37902 ft | 468 kts | 44° |
| 2026-04-21 15:07 | 43.57212 | 8.60679 | 37902 ft | 468 kts | 44° |
| 2026-04-21 15:07 | 43.61317 | 8.67569 | 37901 ft | 468 kts | 45° |
| 2026-04-21 15:08 | 43.65420 | 8.74472 | 37902 ft | 468 kts | 45° |
| 2026-04-21 15:08 | 43.69530 | 8.81410 | 37901 ft | 468 kts | 45° |
| 2026-04-21 15:09 | 43.73652 | 8.88383 | 37900 ft | 468 kts | 45° |
| 2026-04-21 15:09 | 43.77751 | 8.95329 | 37898 ft | 468 kts | 45° |
| 2026-04-21 15:10 | 43.82062 | 9.02053 | 37774 ft | 465 kts | 39° |
| 2026-04-21 15:10 | 43.84369 | 9.05085 | 37472 ft | 460 kts | 36° |
| 2026-04-21 15:10 | 43.86734 | 9.08038 | 37105 ft | 456 kts | 35° |
| 2026-04-21 15:11 | 43.89086 | 9.10944 | 36614 ft | 455 kts | 35° |
| 2026-04-21 15:11 | 43.91456 | 9.13868 | 35957 ft | 458 kts | 35° |
| 2026-04-21 15:11 | 43.93822 | 9.16796 | 35254 ft | 462 kts | 35° |
| 2026-04-21 15:11 | 43.96219 | 9.19771 | 34524 ft | 466 kts | 35° |
| 2026-04-21 15:12 | 43.98625 | 9.22766 | 33718 ft | 469 kts | 35° |
| 2026-04-21 15:12 | 44.01057 | 9.25801 | 32894 ft | 471 kts | 35° |
| 2026-04-21 15:12 | 44.03473 | 9.28824 | 32102 ft | 470 kts | 35° |
| 2026-04-21 15:12 | 44.05890 | 9.31854 | 31313 ft | 470 kts | 35° |
| 2026-04-21 15:13 | 44.08304 | 9.34881 | 30495 ft | 469 kts | 34° |
| 2026-04-21 15:13 | 44.10688 | 9.37881 | 29809 ft | 463 kts | 34° |
| 2026-04-21 15:13 | 44.13061 | 9.40876 | 29275 ft | 453 kts | 34° |
| 2026-04-21 15:13 | 44.15373 | 9.43792 | 28765 ft | 447 kts | 34° |
| 2026-04-21 15:14 | 44.17646 | 9.46658 | 28298 ft | 444 kts | 33° |
| 2026-04-21 15:14 | 44.19921 | 9.49521 | 27840 ft | 441 kts | 33° |
| 2026-04-21 15:14 | 44.22190 | 9.52382 | 27366 ft | 438 kts | 33° |
| 2026-04-21 15:14 | 44.24435 | 9.55216 | 26888 ft | 434 kts | 33° |
| 2026-04-21 15:15 | 44.26645 | 9.58011 | 26422 ft | 431 kts | 33° |
| 2026-04-21 15:15 | 44.28852 | 9.60806 | 25955 ft | 428 kts | 33° |
| 2026-04-21 15:15 | 44.31050 | 9.63590 | 25472 ft | 424 kts | 33° |
| 2026-04-21 15:15 | 44.33228 | 9.66353 | 24967 ft | 421 kts | 34° |
| 2026-04-21 15:16 | 44.35367 | 9.69070 | 24463 ft | 418 kts | 34° |
| 2026-04-21 15:16 | 44.37507 | 9.71792 | 23961 ft | 414 kts | 34° |
| 2026-04-21 15:16 | 44.39627 | 9.74491 | 23464 ft | 411 kts | 33° |
| 2026-04-21 15:16 | 44.41705 | 9.77139 | 22975 ft | 407 kts | 33° |
| 2026-04-21 15:17 | 44.43800 | 9.79811 | 22494 ft | 404 kts | 33° |
| 2026-04-21 15:17 | 44.45847 | 9.82422 | 22014 ft | 401 kts | 34° |
| 2026-04-21 15:17 | 44.47907 | 9.85053 | 21515 ft | 398 kts | 34° |
| 2026-04-21 15:17 | 44.49941 | 9.87655 | 21015 ft | 394 kts | 34° |
| 2026-04-21 15:18 | 44.51933 | 9.90209 | 20525 ft | 384 kts | 34° |
| 2026-04-21 15:18 | 44.53874 | 9.92700 | 20053 ft | 377 kts | 34° |
| 2026-04-21 15:18 | 44.55787 | 9.95156 | 19583 ft | 371 kts | 34° |
| 2026-04-21 15:18 | 44.57648 | 9.97545 | 19116 ft | 366 kts | 34° |
| 2026-04-21 15:19 | 44.59523 | 9.99949 | 18647 ft | 365 kts | 34° |
| 2026-04-21 15:19 | 44.61406 | 10.02368 | 18173 ft | 361 kts | 35° |
| 2026-04-21 15:19 | 44.63226 | 10.04714 | 17279 ft | 358 kts | 35° |
| 2026-04-21 15:19 | 44.65039 | 10.07031 | 16044 ft | 362 kts | 35° |
| 2026-04-21 15:20 | 44.66872 | 10.09394 | 15205 ft | 350 kts | 36° |
| 2026-04-21 15:20 | 44.68609 | 10.11648 | 14644 ft | 331 kts | 34° |
| 2026-04-21 15:20 | 44.70373 | 10.13463 | 14191 ft | 307 kts | 25° |
| 2026-04-21 15:20 | 44.72150 | 10.14971 | 13811 ft | 288 kts | 24° |
| 2026-04-21 15:21 | 44.73830 | 10.16365 | 13484 ft | 272 kts | 24° |
| 2026-04-21 15:21 | 44.75407 | 10.17691 | 13172 ft | 259 kts | 25° |
| 2026-04-21 15:21 | 44.76924 | 10.18986 | 12869 ft | 256 kts | 26° |
| 2026-04-21 15:21 | 44.78446 | 10.20301 | 12565 ft | 254 kts | 26° |
| 2026-04-21 15:22 | 44.79936 | 10.21601 | 12239 ft | 253 kts | 27° |
| 2026-04-21 15:22 | 44.81411 | 10.22898 | 11815 ft | 249 kts | 27° |
| 2026-04-21 15:22 | 44.82878 | 10.24191 | 11274 ft | 248 kts | 27° |
| 2026-04-21 15:22 | 44.84324 | 10.25471 | 10745 ft | 246 kts | 28° |
| 2026-04-21 15:23 | 44.85762 | 10.26746 | 10202 ft | 244 kts | 28° |
| 2026-04-21 15:23 | 44.87194 | 10.28014 | 9642 ft | 242 kts | 29° |
| 2026-04-21 15:23 | 44.88611 | 10.29269 | 9389 ft | 241 kts | 29° |
| 2026-04-21 15:23 | 44.90013 | 10.30514 | 9231 ft | 231 kts | 30° |
| 2026-04-21 15:24 | 44.91327 | 10.31684 | 8791 ft | 227 kts | 30° |
| 2026-04-21 15:24 | 44.92681 | 10.32886 | 8038 ft | 235 kts | 31° |
| 2026-04-21 15:24 | 44.94048 | 10.34100 | 7409 ft | 235 kts | 31° |
| 2026-04-21 15:24 | 44.95444 | 10.35342 | 6723 ft | 239 kts | 31° |
| 2026-04-21 15:25 | 44.96830 | 10.36576 | 6299 ft | 232 kts | 32° |
| 2026-04-21 15:25 | 44.98178 | 10.37778 | 6129 ft | 231 kts | 32° |
| 2026-04-21 15:25 | 44.99531 | 10.38985 | 6070 ft | 230 kts | 32° |
| 2026-04-21 15:25 | 45.00904 | 10.40210 | 6045 ft | 230 kts | 32° |
| 2026-04-21 15:26 | 45.02251 | 10.41413 | 6052 ft | 230 kts | 32° |
| 2026-04-21 15:26 | 45.03614 | 10.42630 | 6047 ft | 231 kts | 32° |
| 2026-04-21 15:26 | 45.04978 | 10.43849 | 6047 ft | 231 kts | 32° |
| 2026-04-21 15:26 | 45.06327 | 10.45056 | 6001 ft | 232 kts | 32° |
| 2026-04-21 15:27 | 45.07697 | 10.46282 | 5853 ft | 231 kts | 32° |
| 2026-04-21 15:27 | 45.09058 | 10.47474 | 5750 ft | 229 kts | 29° |
| 2026-04-21 15:27 | 45.10459 | 10.48498 | 5769 ft | 222 kts | 26° |
| 2026-04-21 15:27 | 45.11823 | 10.49491 | 5692 ft | 221 kts | 31° |
| 2026-04-21 15:28 | 45.13069 | 10.50741 | 5607 ft | 220 kts | 40° |
| 2026-04-21 15:28 | 45.14226 | 10.52181 | 5517 ft | 219 kts | 42° |
| 2026-04-21 15:28 | 45.15337 | 10.53636 | 5255 ft | 219 kts | 43° |
| 2026-04-21 15:28 | 45.16437 | 10.55137 | 4987 ft | 217 kts | 44° |
| 2026-04-21 15:29 | 45.17496 | 10.56624 | 4767 ft | 214 kts | 45° |
| 2026-04-21 15:29 | 45.18535 | 10.58112 | 4575 ft | 209 kts | 46° |
| 2026-04-21 15:29 | 45.19530 | 10.59557 | 4435 ft | 202 kts | 46° |
| 2026-04-21 15:29 | 45.20509 | 10.60990 | 4381 ft | 207 kts | 46° |
| 2026-04-21 15:30 | 45.21519 | 10.62476 | 4224 ft | 213 kts | 46° |
| 2026-04-21 15:30 | 45.22546 | 10.63988 | 3996 ft | 211 kts | 46° |
| 2026-04-21 15:30 | 45.23559 | 10.65477 | 3817 ft | 208 kts | 47° |
| 2026-04-21 15:30 | 45.24559 | 10.66948 | 3606 ft | 209 kts | 46° |
| 2026-04-21 15:31 | 45.25569 | 10.68431 | 3516 ft | 209 kts | 46° |
| 2026-04-21 15:31 | 45.26536 | 10.69846 | 3488 ft | 190 kts | 46° |
| 2026-04-21 15:31 | 45.27416 | 10.71131 | 3374 ft | 172 kts | 46° |
| 2026-04-21 15:31 | 45.28210 | 10.72293 | 3194 ft | 159 kts | 46° |
| 2026-04-21 15:32 | 45.28954 | 10.73380 | 2962 ft | 146 kts | 46° |
| 2026-04-21 15:32 | 45.29627 | 10.74365 | 2741 ft | 134 kts | 47° |
| 2026-04-21 15:32 | 45.30264 | 10.75295 | 2565 ft | 132 kts | 47° |
| 2026-04-21 15:32 | 45.30905 | 10.76231 | 2399 ft | 131 kts | 46° |
| 2026-04-21 15:33 | 45.31542 | 10.77160 | 2231 ft | 131 kts | 47° |
| 2026-04-21 15:33 | 45.32175 | 10.78083 | 2063 ft | 131 kts | 47° |
| 2026-04-21 15:33 | 45.32807 | 10.79003 | 1891 ft | 130 kts | 47° |
| 2026-04-21 15:33 | 45.33443 | 10.79930 | 1715 ft | 130 kts | 47° |
| 2026-04-21 15:34 | 45.34076 | 10.80850 | 1541 ft | 129 kts | 47° |
| 2026-04-21 15:34 | 45.34698 | 10.81756 | 1360 ft | 128 kts | 47° |
| 2026-04-21 15:34 | 45.35322 | 10.82665 | 1191 ft | 128 kts | 48° |
| 2026-04-21 15:34 | 45.35942 | 10.83568 | 1015 ft | 128 kts | 49° |
| 2026-04-21 15:35 | 45.36558 | 10.84459 | 849 ft | 127 kts | 50° |
| 2026-04-21 15:35 | 45.37180 | 10.85365 | 677 ft | 127 kts | 50° |
| 2026-04-21 15:35 | 45.37794 | 10.86264 | 510 ft | 126 kts | 49° |
| 2026-04-21 15:35 | 45.38406 | 10.87154 | 344 ft | 126 kts | 49° |
| 2026-04-21 15:36 | 45.39020 | 10.88045 | 228 ft | 124 kts | 49° |
| 2026-04-21 15:36 | 45.39527 | 10.88807 | 232 ft | 82 kts | 48° |
| 2026-04-21 15:36 | 45.39842 | 10.89262 | 234 ft | 57 kts | 47° |
| 2026-04-21 15:36 | 45.40114 | 10.89650 | 237 ft | 53 kts | 46° |
| 2026-04-21 15:37 | 45.40282 | 10.89973 | 234 ft | 31 kts | 68° |
| 2026-04-21 15:37 | 45.40316 | 10.90141 | 233 ft | 15 kts | 77° |
| 2026-04-21 15:37 | 45.40335 | 10.90248 | 235 ft | 7 kts | 73° |
| 2026-04-21 15:37 | 45.40351 | 10.90311 | 237 ft | 6 kts | 52° |
| 2026-04-21 15:38 | 45.40346 | 10.90365 | 237 ft | 6 kts | 109° |
| 2026-04-21 15:38 | 45.40323 | 10.90412 | 237 ft | 0 kts | 130° |